Terminal Aerodrome Forecast
Issued by NWS

Home | Current Version | Previous Version | Graphics & Text | Print | Product List | Glossary On
Versions: 1 2 3 4 5 6 7 8 9 10 11 12 13 14 15 16 17 18 19 20 21 22 23 24 25 26 27
000
FTUS43 KLOT 262320
TAFDPA
TAF
KDPA 262320Z 2700/2724 06010KT 6SM BR VCSH SCT015 OVC035
      TEMPO 2700/2703 3SM -SHRA SCT009 BKN015
     FM270300 03008KT P6SM SCT015 BKN030
     FM270600 02005KT 6SM BR FEW006 SCT050
     FM271300 08006KT P6SM SCT150
     FM272100 08010KT P6SM SCT040=

USA.gov is the U.S. government's official web portal to all federal, state and local government web resources and services.